sensor_id;sensor_type;location;lat;lon;timestamp;pressure;altitude;pressure_sealevel;temperature;humidity
26376;BME280;30544;42.196;24.336;2023-01-28T00:01:51;98425.03;;;4.22;76.32
26376;BME280;30544;42.196;24.336;2023-01-28T00:04:18;98424.25;;;4.15;75.97
26376;BME280;30544;42.196;24.336;2023-01-28T00:06:44;98434.94;;;4.23;77.06
26376;BME280;30544;42.196;24.336;2023-01-28T00:09:13;98426.47;;;4.00;77.46
26376;BME280;30544;42.196;24.336;2023-01-28T00:11:40;98429.72;;;4.15;76.93
26376;BME280;30544;42.196;24.336;2023-01-28T00:14:06;98435.00;;;4.16;77.56
26376;BME280;30544;42.196;24.336;2023-01-28T00:16:33;98437.97;;;4.15;76.94
26376;BME280;30544;42.196;24.336;2023-01-28T00:19:00;98440.63;;;4.03;77.98
26376;BME280;30544;42.196;24.336;2023-01-28T00:21:27;98435.34;;;4.02;77.69
26376;BME280;30544;42.196;24.336;2023-01-28T00:23:54;98443.44;;;4.15;76.82
26376;BME280;30544;42.196;24.336;2023-01-28T00:26:23;98437.41;;;4.06;77.41
26376;BME280;30544;42.196;24.336;2023-01-28T00:28:50;98451.31;;;4.11;76.83
26376;BME280;30544;42.196;24.336;2023-01-28T00:31:20;98447.00;;;3.97;76.43
26376;BME280;30544;42.196;24.336;2023-01-28T00:33:48;98454.53;;;4.02;77.20
26376;BME280;30544;42.196;24.336;2023-01-28T00:36:17;98458.41;;;3.94;76.54
26376;BME280;30544;42.196;24.336;2023-01-28T00:38:48;98459.16;;;4.08;76.99
26376;BME280;30544;42.196;24.336;2023-01-28T00:41:17;98464.25;;;4.04;77.13
26376;BME280;30544;42.196;24.336;2023-01-28T00:43:48;98472.53;;;3.98;77.22
26376;BME280;30544;42.196;24.336;2023-01-28T00:46:15;98457.22;;;3.83;77.41
26376;BME280;30544;42.196;24.336;2023-01-28T00:48:43;98470.38;;;4.00;77.36
26376;BME280;30544;42.196;24.336;2023-01-28T00:51:12;98474.81;;;4.01;77.11
26376;BME280;30544;42.196;24.336;2023-01-28T00:53:39;98474.19;;;3.99;77.96
26376;BME280;30544;42.196;24.336;2023-01-28T00:56:08;98472.69;;;4.03;76.70
26376;BME280;30544;42.196;24.336;2023-01-28T00:58:35;98474.25;;;4.17;77.19
26376;BME280;30544;42.196;24.336;2023-01-28T01:01:08;98472.97;;;3.95;77.51
26376;BME280;30544;42.196;24.336;2023-01-28T01:03:35;98472.91;;;4.01;77.72
26376;BME280;30544;42.196;24.336;2023-01-28T01:06:01;98480.72;;;4.04;77.41
26376;BME280;30544;42.196;24.336;2023-01-28T01:08:28;98478.41;;;4.01;77.02
26376;BME280;30544;42.196;24.336;2023-01-28T01:11:00;98479.59;;;4.12;76.32
26376;BME280;30544;42.196;24.336;2023-01-28T01:13:27;98477.75;;;4.06;76.42
26376;BME280;30544;42.196;24.336;2023-01-28T01:16:01;98482.63;;;4.04;77.29
26376;BME280;30544;42.196;24.336;2023-01-28T01:18:29;98485.66;;;4.20;76.09
26376;BME280;30544;42.196;24.336;2023-01-28T01:20:56;98486.00;;;3.99;77.18
26376;BME280;30544;42.196;24.336;2023-01-28T01:23:24;98475.25;;;3.98;77.06
26376;BME280;30544;42.196;24.336;2023-01-28T01:25:51;98493.88;;;4.20;76.94
26376;BME280;30544;42.196;24.336;2023-01-28T01:28:17;98492.19;;;4.19;77.08
26376;BME280;30544;42.196;24.336;2023-01-28T01:30:45;98498.81;;;4.12;77.10
26376;BME280;30544;42.196;24.336;2023-01-28T01:33:12;98493.03;;;4.20;76.97
26376;BME280;30544;42.196;24.336;2023-01-28T01:35:40;98487.72;;;4.25;77.40
26376;BME280;30544;42.196;24.336;2023-01-28T01:38:07;98494.44;;;4.29;77.44
26376;BME280;30544;42.196;24.336;2023-01-28T01:40:34;98493.97;;;4.32;76.52
26376;BME280;30544;42.196;24.336;2023-01-28T01:43:01;98495.91;;;4.07;78.30
26376;BME280;30544;42.196;24.336;2023-01-28T01:45:30;98493.53;;;4.10;77.66
26376;BME280;30544;42.196;24.336;2023-01-28T01:48:02;98496.19;;;4.23;77.21
26376;BME280;30544;42.196;24.336;2023-01-28T01:50:31;98494.81;;;4.08;77.29
26376;BME280;30544;42.196;24.336;2023-01-28T01:53:04;98495.78;;;4.20;76.98
26376;BME280;30544;42.196;24.336;2023-01-28T01:55:34;98499.50;;;4.01;77.22
26376;BME280;30544;42.196;24.336;2023-01-28T01:58:06;98496.91;;;4.12;76.68
26376;BME280;30544;42.196;24.336;2023-01-28T02:00:35;98504.84;;;3.96;77.20
26376;BME280;30544;42.196;24.336;2023-01-28T02:03:01;98509.69;;;4.25;76.04
26376;BME280;30544;42.196;24.336;2023-01-28T02:05:28;98501.38;;;4.07;76.77
26376;BME280;30544;42.196;24.336;2023-01-28T02:07:57;98502.09;;;3.96;76.42
26376;BME280;30544;42.196;24.336;2023-01-28T02:10:48;98511.34;;;4.26;76.19
26376;BME280;30544;42.196;24.336;2023-01-28T02:13:16;98512.38;;;4.07;75.51
26376;BME280;30544;42.196;24.336;2023-01-28T02:15:45;98509.22;;;4.03;74.51
26376;BME280;30544;42.196;24.336;2023-01-28T02:18:13;98514.06;;;4.01;74.78
26376;BME280;30544;42.196;24.336;2023-01-28T02:20:57;98518.63;;;3.89;74.77
26376;BME280;30544;42.196;24.336;2023-01-28T02:23:36;98514.50;;;4.05;73.56
26376;BME280;30544;42.196;24.336;2023-01-28T02:26:28;98515.66;;;4.15;74.22
26376;BME280;30544;42.196;24.336;2023-01-28T02:29:03;98521.66;;;4.06;73.61
26376;BME280;30544;42.196;24.336;2023-01-28T02:31:33;98519.91;;;4.11;73.34
26376;BME280;30544;42.196;24.336;2023-01-28T02:34:08;98528.84;;;4.00;73.61
26376;BME280;30544;42.196;24.336;2023-01-28T02:36:41;98531.00;;;3.98;73.32
26376;BME280;30544;42.196;24.336;2023-01-28T02:39:13;98525.47;;;4.05;73.87
26376;BME280;30544;42.196;24.336;2023-01-28T02:41:44;98531.03;;;3.91;74.33
26376;BME280;30544;42.196;24.336;2023-01-28T02:44:14;98528.81;;;4.07;73.71
26376;BME280;30544;42.196;24.336;2023-01-28T02:46:41;98531.72;;;4.12;73.28
26376;BME280;30544;42.196;24.336;2023-01-28T02:49:28;98531.78;;;4.05;74.31
26376;BME280;30544;42.196;24.336;2023-01-28T02:55:17;98536.09;;;3.95;74.21
26376;BME280;30544;42.196;24.336;2023-01-28T02:57:54;98535.53;;;3.79;74.45
26376;BME280;30544;42.196;24.336;2023-01-28T03:00:30;98529.63;;;3.82;74.91
26376;BME280;30544;42.196;24.336;2023-01-28T03:03:08;98538.22;;;3.92;73.92
26376;BME280;30544;42.196;24.336;2023-01-28T03:05:41;98528.63;;;4.02;73.51
26376;BME280;30544;42.196;24.336;2023-01-28T03:08:32;98536.44;;;4.05;73.16
26376;BME280;30544;42.196;24.336;2023-01-28T03:11:17;98534.41;;;3.93;74.10
26376;BME280;30544;42.196;24.336;2023-01-28T03:14:02;98535.19;;;4.01;72.96
26376;BME280;30544;42.196;24.336;2023-01-28T03:16:49;98539.53;;;4.15;73.83
26376;BME280;30544;42.196;24.336;2023-01-28T03:19:35;98534.78;;;4.04;74.18
26376;BME280;30544;42.196;24.336;2023-01-28T03:22:20;98536.53;;;3.91;73.02
26376;BME280;30544;42.196;24.336;2023-01-28T03:25:05;98536.75;;;3.90;74.06
26376;BME280;30544;42.196;24.336;2023-01-28T03:27:53;98546.59;;;3.98;74.10
26376;BME280;30544;42.196;24.336;2023-01-28T03:30:42;98540.28;;;3.97;73.71
26376;BME280;30544;42.196;24.336;2023-01-28T03:33:29;98548.50;;;4.04;73.84
26376;BME280;30544;42.196;24.336;2023-01-28T03:36:15;98548.13;;;3.93;74.07
26376;BME280;30544;42.196;24.336;2023-01-28T03:38:59;98543.69;;;3.92;74.08
26376;BME280;30544;42.196;24.336;2023-01-28T03:41:26;98543.94;;;3.91;74.08
26376;BME280;30544;42.196;24.336;2023-01-28T03:43:53;98557.97;;;4.01;72.89
26376;BME280;30544;42.196;24.336;2023-01-28T03:46:20;98565.59;;;3.99;73.57
26376;BME280;30544;42.196;24.336;2023-01-28T03:48:49;98559.09;;;3.93;73.83
26376;BME280;30544;42.196;24.336;2023-01-28T03:51:15;98560.59;;;3.89;73.45
26376;BME280;30544;42.196;24.336;2023-01-28T03:53:42;98568.56;;;3.98;73.77
26376;BME280;30544;42.196;24.336;2023-01-28T03:56:09;98565.88;;;3.91;73.33
26376;BME280;30544;42.196;24.336;2023-01-28T03:58:42;98566.09;;;3.89;73.15
26376;BME280;30544;42.196;24.336;2023-01-28T04:01:17;98576.88;;;3.84;73.78
26376;BME280;30544;42.196;24.336;2023-01-28T04:03:44;98576.84;;;3.91;73.26
26376;BME280;30544;42.196;24.336;2023-01-28T04:06:13;98573.00;;;3.99;73.48
26376;BME280;30544;42.196;24.336;2023-01-28T04:08:40;98574.97;;;3.85;74.58
26376;BME280;30544;42.196;24.336;2023-01-28T04:11:17;98578.53;;;3.92;74.25
26376;BME280;30544;42.196;24.336;2023-01-28T04:13:46;98577.06;;;3.89;73.95
26376;BME280;30544;42.196;24.336;2023-01-28T04:16:15;98581.06;;;3.93;73.41
26376;BME280;30544;42.196;24.336;2023-01-28T04:18:42;98578.56;;;3.85;73.96
26376;BME280;30544;42.196;24.336;2023-01-28T04:21:09;98577.94;;;3.83;73.67
26376;BME280;30544;42.196;24.336;2023-01-28T04:23:38;98579.16;;;3.94;74.46
26376;BME280;30544;42.196;24.336;2023-01-28T04:26:04;98587.72;;;3.73;74.41
26376;BME280;30544;42.196;24.336;2023-01-28T04:28:31;98584.97;;;3.73;74.39
26376;BME280;30544;42.196;24.336;2023-01-28T04:30:58;98588.13;;;3.76;75.31
26376;BME280;30544;42.196;24.336;2023-01-28T04:33:25;98586.00;;;3.78;74.91
26376;BME280;30544;42.196;24.336;2023-01-28T04:35:51;98581.56;;;3.77;74.39
26376;BME280;30544;42.196;24.336;2023-01-28T04:38:18;98587.28;;;3.69;76.03
26376;BME280;30544;42.196;24.336;2023-01-28T04:40:49;98587.13;;;3.64;75.80
26376;BME280;30544;42.196;24.336;2023-01-28T04:43:16;98598.25;;;3.76;74.38
26376;BME280;30544;42.196;24.336;2023-01-28T04:45:44;98591.09;;;3.68;74.80
26376;BME280;30544;42.196;24.336;2023-01-28T04:48:11;98595.28;;;3.77;75.90
26376;BME280;30544;42.196;24.336;2023-01-28T04:50:38;98594.03;;;3.73;74.93
26376;BME280;30544;42.196;24.336;2023-01-28T04:53:05;98604.00;;;3.61;75.71
26376;BME280;30544;42.196;24.336;2023-01-28T04:55:31;98608.44;;;3.62;75.75
26376;BME280;30544;42.196;24.336;2023-01-28T04:58:00;98600.31;;;3.80;74.92
26376;BME280;30544;42.196;24.336;2023-01-28T05:00:26;98612.13;;;3.81;74.38
26376;BME280;30544;42.196;24.336;2023-01-28T05:02:53;98613.75;;;3.50;75.32
26376;BME280;30544;42.196;24.336;2023-01-28T05:05:20;98616.44;;;3.63;75.51
26376;BME280;30544;42.196;24.336;2023-01-28T05:07:50;98613.28;;;3.60;75.66
26376;BME280;30544;42.196;24.336;2023-01-28T05:10:17;98621.94;;;3.63;75.13
26376;BME280;30544;42.196;24.336;2023-01-28T05:12:45;98632.09;;;3.56;75.87
26376;BME280;30544;42.196;24.336;2023-01-28T05:15:13;98629.69;;;3.73;74.78
26376;BME280;30544;42.196;24.336;2023-01-28T05:17:40;98637.00;;;3.86;74.80
26376;BME280;30544;42.196;24.336;2023-01-28T05:20:09;98636.25;;;3.72;74.71
26376;BME280;30544;42.196;24.336;2023-01-28T05:22:37;98640.00;;;3.78;75.92
26376;BME280;30544;42.196;24.336;2023-01-28T05:25:05;98647.63;;;3.76;75.15
26376;BME280;30544;42.196;24.336;2023-01-28T05:27:32;98649.09;;;3.78;74.97
26376;BME280;30544;42.196;24.336;2023-01-28T05:29:59;98647.41;;;3.77;75.58
26376;BME280;30544;42.196;24.336;2023-01-28T05:32:27;98653.13;;;3.69;76.33
26376;BME280;30544;42.196;24.336;2023-01-28T05:34:54;98655.44;;;3.72;76.55
26376;BME280;30544;42.196;24.336;2023-01-28T05:37:21;98654.75;;;3.83;75.96
26376;BME280;30544;42.196;24.336;2023-01-28T05:39:47;98654.75;;;3.83;75.18
26376;BME280;30544;42.196;24.336;2023-01-28T05:42:14;98661.91;;;3.84;75.52
26376;BME280;30544;42.196;24.336;2023-01-28T05:44:43;98659.78;;;3.93;75.17
26376;BME280;30544;42.196;24.336;2023-01-28T05:47:09;98658.44;;;4.02;75.17
26376;BME280;30544;42.196;24.336;2023-01-28T05:49:37;98668.47;;;3.83;74.67
26376;BME280;30544;42.196;24.336;2023-01-28T05:52:04;98661.06;;;3.90;75.00
26376;BME280;30544;42.196;24.336;2023-01-28T05:54:31;98665.31;;;3.80;75.14
26376;BME280;30544;42.196;24.336;2023-01-28T05:56:58;98666.06;;;4.00;75.00
26376;BME280;30544;42.196;24.336;2023-01-28T05:59:25;98679.44;;;3.83;74.69
26376;BME280;30544;42.196;24.336;2023-01-28T06:01:52;98687.03;;;3.88;74.63
26376;BME280;30544;42.196;24.336;2023-01-28T06:04:19;98688.84;;;4.01;75.39
26376;BME280;30544;42.196;24.336;2023-01-28T06:06:47;98688.47;;;3.97;75.36
26376;BME280;30544;42.196;24.336;2023-01-28T06:09:13;98695.69;;;3.91;75.08
26376;BME280;30544;42.196;24.336;2023-01-28T06:11:40;98693.50;;;4.07;74.50
26376;BME280;30544;42.196;24.336;2023-01-28T06:14:07;98700.88;;;4.06;75.04
26376;BME280;30544;42.196;24.336;2023-01-28T06:16:34;98693.88;;;4.10;74.63
26376;BME280;30544;42.196;24.336;2023-01-28T06:19:01;98699.59;;;4.09;75.25
26376;BME280;30544;42.196;24.336;2023-01-28T06:21:28;98708.06;;;4.07;75.33
26376;BME280;30544;42.196;24.336;2023-01-28T06:23:56;98712.09;;;4.05;74.74
26376;BME280;30544;42.196;24.336;2023-01-28T06:26:23;98721.75;;;4.14;74.86
26376;BME280;30544;42.196;24.336;2023-01-28T06:28:49;98719.38;;;4.24;74.41
26376;BME280;30544;42.196;24.336;2023-01-28T06:31:16;98725.00;;;4.36;74.45
26376;BME280;30544;42.196;24.336;2023-01-28T06:33:43;98726.78;;;4.23;73.43
26376;BME280;30544;42.196;24.336;2023-01-28T06:36:10;98731.75;;;4.40;74.30
26376;BME280;30544;42.196;24.336;2023-01-28T06:38:37;98732.84;;;4.32;73.52
26376;BME280;30544;42.196;24.336;2023-01-28T06:41:05;98742.16;;;4.63;72.78
26376;BME280;30544;42.196;24.336;2023-01-28T06:43:32;98741.00;;;4.45;72.56
26376;BME280;30544;42.196;24.336;2023-01-28T06:45:59;98745.72;;;4.38;72.70
26376;BME280;30544;42.196;24.336;2023-01-28T06:48:26;98744.75;;;4.58;72.70
26376;BME280;30544;42.196;24.336;2023-01-28T06:50:53;98752.69;;;4.72;73.58
26376;BME280;30544;42.196;24.336;2023-01-28T06:53:20;98749.25;;;4.45;72.87
26376;BME280;30544;42.196;24.336;2023-01-28T06:55:47;98751.94;;;4.59;72.99
26376;BME280;30544;42.196;24.336;2023-01-28T06:58:15;98753.84;;;4.51;72.55
26376;BME280;30544;42.196;24.336;2023-01-28T07:00:42;98759.56;;;4.57;72.39
26376;BME280;30544;42.196;24.336;2023-01-28T07:03:09;98758.75;;;4.81;71.36
26376;BME280;30544;42.196;24.336;2023-01-28T07:05:36;98761.00;;;4.91;70.86
26376;BME280;30544;42.196;24.336;2023-01-28T07:08:03;98760.16;;;5.22;70.16
26376;BME280;30544;42.196;24.336;2023-01-28T07:10:30;98771.16;;;4.90;70.64
26376;BME280;30544;42.196;24.336;2023-01-28T07:12:57;98768.66;;;4.89;70.06
26376;BME280;30544;42.196;24.336;2023-01-28T07:15:25;98773.53;;;5.11;69.78
26376;BME280;30544;42.196;24.336;2023-01-28T07:17:52;98768.59;;;5.45;68.51
26376;BME280;30544;42.196;24.336;2023-01-28T07:20:19;98770.28;;;5.46;67.59
26376;BME280;30544;42.196;24.336;2023-01-28T07:22:46;98773.16;;;5.33;67.40
26376;BME280;30544;42.196;24.336;2023-01-28T07:25:14;98785.31;;;5.93;64.95
26376;BME280;30544;42.196;24.336;2023-01-28T07:27:46;98789.50;;;5.96;64.74
26376;BME280;30544;42.196;24.336;2023-01-28T07:30:13;98781.56;;;5.63;64.96
26376;BME280;30544;42.196;24.336;2023-01-28T07:32:42;98803.00;;;6.22;63.45
26376;BME280;30544;42.196;24.336;2023-01-28T07:35:09;98795.25;;;5.88;64.38
26376;BME280;30544;42.196;24.336;2023-01-28T07:37:36;98803.59;;;6.43;63.52
26376;BME280;30544;42.196;24.336;2023-01-28T07:40:03;98794.25;;;6.44;63.66
26376;BME280;30544;42.196;24.336;2023-01-28T07:42:30;98791.50;;;6.25;63.36
26376;BME280;30544;42.196;24.336;2023-01-28T07:44:57;98799.97;;;6.60;62.14
26376;BME280;30544;42.196;24.336;2023-01-28T07:47:24;98795.78;;;7.00;61.82
26376;BME280;30544;42.196;24.336;2023-01-28T07:49:52;98811.69;;;6.86;61.64
26376;BME280;30544;42.196;24.336;2023-01-28T07:52:19;98805.34;;;6.19;62.52
26376;BME280;30544;42.196;24.336;2023-01-28T07:54:46;98807.88;;;6.39;63.87
26376;BME280;30544;42.196;24.336;2023-01-28T07:57:12;98809.09;;;6.06;63.02
26376;BME280;30544;42.196;24.336;2023-01-28T07:59:39;98814.13;;;6.46;62.87
26376;BME280;30544;42.196;24.336;2023-01-28T08:02:09;98806.13;;;6.26;61.82
26376;BME280;30544;42.196;24.336;2023-01-28T08:04:36;98810.19;;;6.72;61.05
26376;BME280;30544;42.196;24.336;2023-01-28T08:07:07;98809.75;;;6.86;61.32
26376;BME280;30544;42.196;24.336;2023-01-28T08:09:34;98818.31;;;6.97;60.15
26376;BME280;30544;42.196;24.336;2023-01-28T08:12:01;98814.25;;;6.69;61.31
26376;BME280;30544;42.196;24.336;2023-01-28T08:14:27;98814.22;;;6.57;62.68
26376;BME280;30544;42.196;24.336;2023-01-28T08:16:54;98816.34;;;6.37;62.17
26376;BME280;30544;42.196;24.336;2023-01-28T08:19:21;98825.44;;;6.19;62.36
26376;BME280;30544;42.196;24.336;2023-01-28T08:21:48;98826.16;;;6.33;62.35
26376;BME280;30544;42.196;24.336;2023-01-28T08:24:16;98827.22;;;6.14;62.32
26376;BME280;30544;42.196;24.336;2023-01-28T08:26:43;98824.19;;;6.40;62.20
26376;BME280;30544;42.196;24.336;2023-01-28T08:29:10;98834.03;;;6.48;62.88
26376;BME280;30544;42.196;24.336;2023-01-28T08:31:37;98826.38;;;6.50;61.87
26376;BME280;30544;42.196;24.336;2023-01-28T08:34:04;98839.66;;;6.89;61.66
26376;BME280;30544;42.196;24.336;2023-01-28T08:36:31;98830.47;;;6.77;60.36
26376;BME280;30544;42.196;24.336;2023-01-28T08:38:58;98829.00;;;7.05;61.49
26376;BME280;30544;42.196;24.336;2023-01-28T08:41:26;98834.53;;;7.05;61.16
26376;BME280;30544;42.196;24.336;2023-01-28T08:43:52;98830.00;;;6.80;61.18
26376;BME280;30544;42.196;24.336;2023-01-28T08:46:19;98839.66;;;7.31;60.69
26376;BME280;30544;42.196;24.336;2023-01-28T08:48:48;98852.91;;;6.81;61.49
26376;BME280;30544;42.196;24.336;2023-01-28T08:51:15;98838.75;;;7.07;61.06
26376;BME280;30544;42.196;24.336;2023-01-28T08:53:42;98838.28;;;6.80;61.04
26376;BME280;30544;42.196;24.336;2023-01-28T08:56:08;98847.25;;;6.76;60.42
26376;BME280;30544;42.196;24.336;2023-01-28T08:58:37;98851.25;;;7.21;58.82
26376;BME280;30544;42.196;24.336;2023-01-28T09:01:04;98851.84;;;7.12;59.33
26376;BME280;30544;42.196;24.336;2023-01-28T09:03:31;98861.38;;;6.98;60.14
26376;BME280;30544;42.196;24.336;2023-01-28T09:06:01;98868.16;;;6.65;59.76
26376;BME280;30544;42.196;24.336;2023-01-28T09:08:28;98857.97;;;6.29;61.35
26376;BME280;30544;42.196;24.336;2023-01-28T09:10:55;98861.88;;;6.76;61.35
26376;BME280;30544;42.196;24.336;2023-01-28T09:13:22;98865.75;;;7.17;61.06
26376;BME280;30544;42.196;24.336;2023-01-28T09:15:50;98889.66;;;6.75;60.33
26376;BME280;30544;42.196;24.336;2023-01-28T09:18:17;98865.84;;;6.80;61.53
26376;BME280;30544;42.196;24.336;2023-01-28T09:20:44;98867.78;;;7.40;59.84
26376;BME280;30544;42.196;24.336;2023-01-28T09:23:11;98863.47;;;7.14;58.75
26376;BME280;30544;42.196;24.336;2023-01-28T09:25:39;98869.84;;;7.14;59.08
26376;BME280;30544;42.196;24.336;2023-01-28T09:28:06;98861.94;;;7.60;59.02
26376;BME280;30544;42.196;24.336;2023-01-28T09:30:33;98867.50;;;7.95;58.84
26376;BME280;30544;42.196;24.336;2023-01-28T09:33:01;98867.09;;;7.68;59.95
26376;BME280;30544;42.196;24.336;2023-01-28T09:35:28;98864.25;;;7.33;60.13
26376;BME280;30544;42.196;24.336;2023-01-28T09:37:57;98867.84;;;7.03;59.87
26376;BME280;30544;42.196;24.336;2023-01-28T09:40:31;98858.66;;;7.51;60.04
26376;BME280;30544;42.196;24.336;2023-01-28T09:43:15;98865.94;;;7.34;58.99
26376;BME280;30544;42.196;24.336;2023-01-28T09:45:52;98882.97;;;7.01;58.88
26376;BME280;30544;42.196;24.336;2023-01-28T09:48:27;98870.63;;;7.33;58.96
26376;BME280;30544;42.196;24.336;2023-01-28T09:50:57;98866.81;;;7.46;59.28
26376;BME280;30544;42.196;24.336;2023-01-28T09:53:28;98874.25;;;6.85;60.90
26376;BME280;30544;42.196;24.336;2023-01-28T09:55:59;98877.34;;;7.37;60.04
26376;BME280;30544;42.196;24.336;2023-01-28T09:58:27;98874.22;;;7.04;59.39
26376;BME280;30544;42.196;24.336;2023-01-28T10:00:58;98871.50;;;7.45;58.36
26376;BME280;30544;42.196;24.336;2023-01-28T10:03:42;98877.34;;;6.77;59.45
26376;BME280;30544;42.196;24.336;2023-01-28T10:06:19;98877.31;;;6.96;59.90
26376;BME280;30544;42.196;24.336;2023-01-28T10:09:04;98874.69;;;7.31;59.27
26376;BME280;30544;42.196;24.336;2023-01-28T10:11:55;98873.97;;;6.75;60.49
26376;BME280;30544;42.196;24.336;2023-01-28T10:14:30;98889.09;;;6.84;59.35
26376;BME280;30544;42.196;24.336;2023-01-28T10:17:06;98883.94;;;6.58;60.83
26376;BME280;30544;42.196;24.336;2023-01-28T10:19:40;98886.59;;;6.83;60.74
26376;BME280;30544;42.196;24.336;2023-01-28T10:22:12;98890.31;;;7.07;59.73
26376;BME280;30544;42.196;24.336;2023-01-28T10:24:44;98887.59;;;6.70;60.30
26376;BME280;30544;42.196;24.336;2023-01-28T10:27:15;98883.13;;;6.87;60.01
26376;BME280;30544;42.196;24.336;2023-01-28T10:29:42;98882.72;;;7.02;59.84
26376;BME280;30544;42.196;24.336;2023-01-28T10:32:19;98876.78;;;7.17;60.32
26376;BME280;30544;42.196;24.336;2023-01-28T10:34:50;98882.22;;;7.23;59.67
26376;BME280;30544;42.196;24.336;2023-01-28T10:37:17;98877.25;;;7.14;59.05
26376;BME280;30544;42.196;24.336;2023-01-28T10:39:44;98883.25;;;7.11;58.27
26376;BME280;30544;42.196;24.336;2023-01-28T10:42:19;98879.28;;;7.07;58.61
26376;BME280;30544;42.196;24.336;2023-01-28T10:44:52;98887.09;;;7.40;58.32
26376;BME280;30544;42.196;24.336;2023-01-28T10:47:27;98888.78;;;7.11;58.56
26376;BME280;30544;42.196;24.336;2023-01-28T10:49:57;98875.53;;;7.01;59.93
26376;BME280;30544;42.196;24.336;2023-01-28T10:52:25;98872.81;;;7.13;59.64
26376;BME280;30544;42.196;24.336;2023-01-28T10:54:59;98874.19;;;7.87;58.64
26376;BME280;30544;42.196;24.336;2023-01-28T10:57:26;98880.00;;;8.09;58.31
26376;BME280;30544;42.196;24.336;2023-01-28T10:59:53;98890.38;;;7.60;58.42
26376;BME280;30544;42.196;24.336;2023-01-28T11:02:25;98873.66;;;7.55;57.17
26376;BME280;30544;42.196;24.336;2023-01-28T11:05:06;98883.06;;;7.24;58.05
26376;BME280;30544;42.196;24.336;2023-01-28T11:07:33;98885.53;;;7.14;59.99
26376;BME280;30544;42.196;24.336;2023-01-28T11:10:00;98876.88;;;8.29;57.44
26376;BME280;30544;42.196;24.336;2023-01-28T11:12:28;98870.03;;;8.08;56.94
26376;BME280;30544;42.196;24.336;2023-01-28T11:14:57;98875.13;;;7.69;57.99
26376;BME280;30544;42.196;24.336;2023-01-28T11:17:25;98892.25;;;6.51;60.23
26376;BME280;30544;42.196;24.336;2023-01-28T11:19:54;98880.94;;;6.59;60.63
26376;BME280;30544;42.196;24.336;2023-01-28T11:22:30;98875.22;;;7.39;59.65
26376;BME280;30544;42.196;24.336;2023-01-28T11:24:59;98875.75;;;7.00;60.21
26376;BME280;30544;42.196;24.336;2023-01-28T11:27:29;98886.97;;;6.68;61.11
26376;BME280;30544;42.196;24.336;2023-01-28T11:29:57;98885.19;;;7.22;61.23
26376;BME280;30544;42.196;24.336;2023-01-28T11:32:28;98884.22;;;7.16;61.38
26376;BME280;30544;42.196;24.336;2023-01-28T11:34:56;98885.56;;;6.96;62.61
26376;BME280;30544;42.196;24.336;2023-01-28T11:37:26;98889.09;;;6.84;61.35
26376;BME280;30544;42.196;24.336;2023-01-28T11:40:13;98884.97;;;6.93;61.73
26376;BME280;30544;42.196;24.336;2023-01-28T11:42:41;98881.44;;;6.86;62.33
26376;BME280;30544;42.196;24.336;2023-01-28T11:45:14;98885.91;;;6.32;62.86
26376;BME280;30544;42.196;24.336;2023-01-28T11:47:57;98885.63;;;7.07;62.08
26376;BME280;30544;42.196;24.336;2023-01-28T11:50:36;98874.78;;;7.66;61.19
26376;BME280;30544;42.196;24.336;2023-01-28T11:53:20;98882.72;;;7.02;61.66
26376;BME280;30544;42.196;24.336;2023-01-28T11:56:00;98884.69;;;6.65;63.03
26376;BME280;30544;42.196;24.336;2023-01-28T11:58:37;98885.44;;;6.36;62.53
26376;BME280;30544;42.196;24.336;2023-01-28T12:01:12;98888.44;;;6.89;61.78
26376;BME280;30544;42.196;24.336;2023-01-28T12:03:50;98874.59;;;6.59;62.58
26376;BME280;30544;42.196;24.336;2023-01-28T12:06:36;98886.28;;;6.91;62.74
26376;BME280;30544;42.196;24.336;2023-01-28T12:09:14;98884.75;;;6.95;61.37
26376;BME280;30544;42.196;24.336;2023-01-28T12:11:53;98892.50;;;6.50;62.68
26376;BME280;30544;42.196;24.336;2023-01-28T12:15:09;98889.88;;;6.18;63.45
26376;BME280;30544;42.196;24.336;2023-01-28T12:17:54;98900.38;;;6.03;64.00
26376;BME280;30544;42.196;24.336;2023-01-28T12:20:29;98891.78;;;6.36;63.26
26376;BME280;30544;42.196;24.336;2023-01-28T12:23:05;98904.44;;;6.00;63.59
26376;BME280;30544;42.196;24.336;2023-01-28T12:25:51;98889.81;;;6.61;62.79
26376;BME280;30544;42.196;24.336;2023-01-28T12:28:31;98890.31;;;6.88;62.61
26376;BME280;30544;42.196;24.336;2023-01-28T12:31:25;98893.56;;;6.67;62.80
26376;BME280;30544;42.196;24.336;2023-01-28T12:34:14;98895.72;;;6.65;62.61
26376;BME280;30544;42.196;24.336;2023-01-28T12:36:51;98898.94;;;6.44;62.43
26376;BME280;30544;42.196;24.336;2023-01-28T12:39:30;98898.88;;;6.07;64.07
26376;BME280;30544;42.196;24.336;2023-01-28T12:42:09;98903.06;;;6.53;62.93
26376;BME280;30544;42.196;24.336;2023-01-28T12:44:41;98906.22;;;6.75;62.31
26376;BME280;30544;42.196;24.336;2023-01-28T12:47:11;98911.03;;;6.61;63.27
26376;BME280;30544;42.196;24.336;2023-01-28T12:49:43;98902.53;;;6.62;62.93
26376;BME280;30544;42.196;24.336;2023-01-28T12:52:16;98906.22;;;6.56;63.25
26376;BME280;30544;42.196;24.336;2023-01-28T12:54:54;98907.34;;;6.67;62.80
26376;BME280;30544;42.196;24.336;2023-01-28T12:57:27;98904.66;;;6.79;61.72
26376;BME280;30544;42.196;24.336;2023-01-28T13:00:02;98903.34;;;6.26;63.29
26376;BME280;30544;42.196;24.336;2023-01-28T13:02:34;98914.63;;;6.80;62.69
26376;BME280;30544;42.196;24.336;2023-01-28T13:05:07;98904.28;;;6.93;61.77
26376;BME280;30544;42.196;24.336;2023-01-28T13:07:40;98908.34;;;6.91;61.46
26376;BME280;30544;42.196;24.336;2023-01-28T13:10:16;98911.78;;;6.86;61.80
26376;BME280;30544;42.196;24.336;2023-01-28T13:12:46;98914.72;;;7.03;61.00
26376;BME280;30544;42.196;24.336;2023-01-28T13:15:16;98917.28;;;6.86;61.75
26376;BME280;30544;42.196;24.336;2023-01-28T13:17:54;98932.13;;;7.04;61.29
26376;BME280;30544;42.196;24.336;2023-01-28T13:20:36;98925.31;;;6.70;61.46
26376;BME280;30544;42.196;24.336;2023-01-28T13:23:04;98927.09;;;6.64;62.21